PWSweather.com
Personal Weather Stations
Station Observations
ANTHEMNP
Anthem North Parkside, Anthem, AZ 85086

Anthem North ParksideAnthem, AZ 85086

Lat: 33.876464, Lon: -112.13861199999997

Elevation: 1930

Station Type: Davis Vantage Vue with Pro 2 console

http://www.azjerry.com/ANPW/wxindex.php

Latest ConditionsUpdated 12:15:43 PM MST Thursday, Oct 18, 2018
Currently Today's Max Today's Min Today's Average
Temperature 74.5°F23.6°C 74.5°F23.6°C 57.9°F14.4°C 62.6°F17.0°C
Dew Point 45.8°F7.7°C 46.3°F7.9°C 41.9°F5.5°C 43.6°F6.4°C
Winds 2.3 mph N3.7 kmh N 10.4 mph -16.7 kmh - - 6.1 mph 9.8 kmh
Wind Gusts 3.5 mph5.6 kmh 16.1 mph25.9 kmh - -
Humidity 36% 59% 36% 50%
Pressure 30.12 in1020.0 mb 30.18 in1022.0 mb 30.12 in1020.0 mb -
Hour Temp Dew Point Humidity Winds Wind Gusts Pressure Precip Precip Rate Daily Precip Total
12:15 PM 74.5°F23.6°C 45.8°F7.7°C 36% 2.3 mph N3.7 kmh N 3.5 mph5.6 kmh 30.12 in1020.0 mb - 0.00 in0.0 mm 0.00 in0.0 mm
12:10 PM 74.3°F23.5°C 45.6°F7.6°C 36% 2.3 mph N3.7 kmh N 3.5 mph5.6 kmh 30.12 in1020.0 mb - 0.00 in0.0 mm 0.00 in0.0 mm
12:00 PM 73.7°F23.2°C 45.8°F7.7°C 37% 2.3 mph NE3.7 kmh NE 4.6 mph7.4 kmh 30.13 in1020.3 mb - 0.00 in0.0 mm 0.00 in0.0 mm
11:55 AM 73.5°F23.1°C 46.3°F7.9°C 38% 2.3 mph N3.7 kmh N 4.6 mph7.4 kmh 30.13 in1020.3 mb - 0.00 in0.0 mm 0.00 in0.0 mm
11:50 AM 73.3°F22.9°C 46.2°F7.9°C 38% 1.2 mph NNW1.9 kmh NNW 2.3 mph3.7 kmh 30.13 in1020.3 mb - 0.00 in0.0 mm 0.00 in0.0 mm
11:45 AM 73.2°F22.9°C 46.1°F7.8°C 38% 3.5 mph N5.6 kmh N 3.5 mph5.6 kmh 30.14 in1020.7 mb - 0.00 in0.0 mm 0.00 in0.0 mm
11:40 AM 73.3°F22.9°C 46.1°F7.8°C 38% 2.3 mph NNE3.7 kmh NNE 3.5 mph5.6 kmh 30.14 in1020.7 mb - 0.00 in0.0 mm 0.00 in0.0 mm
11:35 AM 73.0°F22.8°C 45.9°F7.7°C 38% 3.5 mph N5.6 kmh N 4.6 mph7.4 kmh 30.14 in1020.7 mb - 0.00 in0.0 mm 0.00 in0.0 mm
11:30 AM 72.7°F22.6°C 46.3°F7.9°C 39% 2.3 mph N3.7 kmh N 6.9 mph11.1 kmh 30.14 in1020.7 mb - 0.00 in0.0 mm 0.00 in0.0 mm
11:25 AM 72.4°F22.4°C 46.0°F7.8°C 39% 2.3 mph NNW3.7 kmh NNW 5.8 mph9.3 kmh 30.14 in1020.7 mb - 0.00 in0.0 mm 0.00 in0.0 mm
11:20 AM 72.3°F22.4°C 45.9°F7.7°C 39% 3.5 mph N5.6 kmh N 3.5 mph5.6 kmh 30.15 in1021.0 mb - 0.00 in0.0 mm 0.00 in0.0 mm
11:15 AM 72.2°F22.3°C 45.9°F7.7°C 39% 2.3 mph N3.7 kmh N 5.8 mph9.3 kmh 30.15 in1021.0 mb - 0.00 in0.0 mm 0.00 in0.0 mm
11:10 AM 71.7°F22.1°C 46.1°F7.8°C 40% 2.3 mph NNW3.7 kmh NNW 3.5 mph5.6 kmh 30.15 in1021.0 mb - 0.00 in0.0 mm 0.00 in0.0 mm
11:00 AM 71.5°F21.9°C 45.9°F7.7°C 40% 3.5 mph N5.6 kmh N 5.8 mph9.3 kmh 30.15 in1021.0 mb - 0.00 in0.0 mm 0.00 in0.0 mm
10:55 AM 71.2°F21.8°C 46.3°F7.9°C 41% 3.5 mph N5.6 kmh N 4.6 mph7.4 kmh 30.16 in1021.3 mb - 0.00 in0.0 mm 0.00 in0.0 mm
10:50 AM 70.8°F21.6°C 46.0°F7.8°C 41% 4.6 mph N7.4 kmh N 11.5 mph18.5 kmh 30.16 in1021.3 mb - 0.00 in0.0 mm 0.00 in0.0 mm
10:45 AM 70.4°F21.3°C 46.2°F7.9°C 42% 3.5 mph N5.6 kmh N 6.9 mph11.1 kmh 30.16 in1021.3 mb - 0.00 in0.0 mm 0.00 in0.0 mm
10:40 AM 70.1°F21.2°C 46.0°F7.8°C 42% 4.6 mph NNE7.4 kmh NNE 6.9 mph11.1 kmh 30.16 in1021.3 mb - 0.00 in0.0 mm 0.00 in0.0 mm
10:35 AM 70.0°F21.1°C 45.8°F7.7°C 42% 3.5 mph N5.6 kmh N 8.1 mph13.0 kmh 30.16 in1021.3 mb - 0.00 in0.0 mm 0.00 in0.0 mm
10:30 AM 69.6°F20.9°C 46.1°F7.8°C 43% 3.5 mph N5.6 kmh N 5.8 mph9.3 kmh 30.16 in1021.3 mb - 0.00 in0.0 mm 0.00 in0.0 mm
10:25 AM 69.3°F20.7°C 45.8°F7.7°C 43% 4.6 mph 7.4 kmh 5.8 mph9.3 kmh 30.16 in1021.3 mb - 0.00 in0.0 mm 0.00 in0.0 mm
10:20 AM 68.9°F20.5°C 45.4°F7.4°C 43% 6.9 mph N11.1 kmh N 11.5 mph18.5 kmh 30.16 in1021.3 mb - 0.00 in0.0 mm 0.00 in0.0 mm
10:15 AM 68.6°F20.3°C 45.8°F7.7°C 44% 5.8 mph 9.3 kmh 9.2 mph14.8 kmh 30.16 in1021.3 mb - 0.00 in0.0 mm 0.00 in0.0 mm
10:10 AM 68.3°F20.2°C 45.5°F7.5°C 44% 5.8 mph N9.3 kmh N 11.5 mph18.5 kmh 30.16 in1021.3 mb - 0.00 in0.0 mm 0.00 in0.0 mm
10:00 AM 67.8°F19.9°C 45.7°F7.6°C 45% 5.8 mph NNE9.3 kmh NNE 11.5 mph18.5 kmh 30.16 in1021.3 mb - 0.00 in0.0 mm 0.00 in0.0 mm
09:55 AM 67.5°F19.7°C 44.8°F7.1°C 44% 8.1 mph N13.0 kmh N 8.1 mph13.0 kmh 30.17 in1021.7 mb - 0.00 in0.0 mm 0.00 in0.0 mm
09:50 AM 67.3°F19.6°C 44.7°F7.1°C 44% 6.9 mph N11.1 kmh N 12.7 mph20.4 kmh 30.17 in1021.7 mb - 0.00 in0.0 mm 0.00 in0.0 mm
09:45 AM 67.1°F19.5°C 45.1°F7.3°C 45% 6.9 mph N11.1 kmh N 11.5 mph18.5 kmh 30.17 in1021.7 mb - 0.00 in0.0 mm 0.00 in0.0 mm
09:40 AM 66.7°F19.3°C 44.7°F7.1°C 45% 9.2 mph N14.8 kmh N 11.5 mph18.5 kmh 30.17 in1021.7 mb - 0.00 in0.0 mm 0.00 in0.0 mm
09:35 AM 66.5°F19.2°C 45.1°F7.3°C 46% 8.1 mph NNE13.0 kmh NNE 11.5 mph18.5 kmh 30.17 in1021.7 mb - 0.00 in0.0 mm 0.00 in0.0 mm
09:30 AM 66.1°F18.9°C 44.7°F7.1°C 46% 8.1 mph NNE13.0 kmh NNE 11.5 mph18.5 kmh 30.17 in1021.7 mb - 0.00 in0.0 mm 0.00 in0.0 mm
09:25 AM 65.8°F18.8°C 44.5°F6.9°C 46% 8.1 mph N13.0 kmh N 11.5 mph18.5 kmh 30.17 in1021.7 mb - 0.00 in0.0 mm 0.00 in0.0 mm
09:20 AM 65.5°F18.6°C 44.8°F7.1°C 47% 8.1 mph NNE13.0 kmh NNE 15.0 mph24.1 kmh 30.18 in1022.0 mb - 0.00 in0.0 mm 0.00 in0.0 mm
09:15 AM 65.2°F18.4°C 44.4°F6.9°C 47% 8.1 mph NNE13.0 kmh NNE 13.8 mph22.2 kmh 30.18 in1022.0 mb - 0.00 in0.0 mm 0.00 in0.0 mm
09:10 AM 64.8°F18.2°C 44.1°F6.7°C 47% 9.2 mph N14.8 kmh N 12.7 mph20.4 kmh 30.18 in1022.0 mb - 0.00 in0.0 mm 0.00 in0.0 mm
09:00 AM 64.5°F18.1°C 43.8°F6.6°C 47% 6.9 mph N11.1 kmh N 12.7 mph20.4 kmh 30.18 in1022.0 mb - 0.00 in0.0 mm 0.00 in0.0 mm
08:55 AM 64.2°F17.9°C 44.1°F6.7°C 48% 8.1 mph N13.0 kmh N 12.7 mph20.4 kmh 30.18 in1022.0 mb - 0.00 in0.0 mm 0.00 in0.0 mm
08:50 AM 64.1°F17.8°C 44.0°F6.7°C 48% 9.2 mph N14.8 kmh N 16.1 mph25.9 kmh 30.18 in1022.0 mb - 0.00 in0.0 mm 0.00 in0.0 mm
08:45 AM 64.0°F17.8°C 43.9°F6.6°C 48% 10.4 mph NNE16.7 kmh NNE 13.8 mph22.2 kmh 30.17 in1021.7 mb - 0.00 in0.0 mm 0.00 in0.0 mm
08:40 AM 63.8°F17.7°C 43.7°F6.5°C 48% 9.2 mph N14.8 kmh N 12.7 mph20.4 kmh 30.18 in1022.0 mb - 0.00 in0.0 mm 0.00 in0.0 mm
08:35 AM 63.6°F17.6°C 43.5°F6.4°C 48% 8.1 mph N13.0 kmh N 15.0 mph24.1 kmh 30.17 in1021.7 mb - 0.00 in0.0 mm 0.00 in0.0 mm
08:30 AM 63.3°F17.4°C 43.8°F6.6°C 49% 8.1 mph NNE13.0 kmh NNE 10.4 mph16.7 kmh 30.17 in1021.7 mb - 0.00 in0.0 mm 0.00 in0.0 mm
08:25 AM 62.9°F17.2°C 43.5°F6.4°C 49% 8.1 mph N13.0 kmh N 11.5 mph18.5 kmh 30.17 in1021.7 mb - 0.00 in0.0 mm 0.00 in0.0 mm
08:20 AM 62.6°F17.0°C 43.2°F6.2°C 49% 8.1 mph N13.0 kmh N 13.8 mph22.2 kmh 30.17 in1021.7 mb - 0.00 in0.0 mm 0.00 in0.0 mm
08:15 AM 62.5°F16.9°C 43.6°F6.4°C 50% 8.1 mph N13.0 kmh N 12.7 mph20.4 kmh 30.17 in1021.7 mb - 0.00 in0.0 mm 0.00 in0.0 mm
08:10 AM 62.3°F16.8°C 43.4°F6.3°C 50% 9.2 mph N14.8 kmh N 16.1 mph25.9 kmh 30.17 in1021.7 mb - 0.00 in0.0 mm 0.00 in0.0 mm
08:00 AM 61.5°F16.4°C 43.2°F6.2°C 51% 8.1 mph N13.0 kmh N 11.5 mph18.5 kmh 30.17 in1021.7 mb - 0.00 in0.0 mm 0.00 in0.0 mm
07:55 AM 61.4°F16.3°C 43.1°F6.2°C 51% 9.2 mph 14.8 kmh 13.8 mph22.2 kmh 30.17 in1021.7 mb - 0.00 in0.0 mm 0.00 in0.0 mm
07:50 AM 61.0°F16.1°C 42.7°F5.9°C 51% 8.1 mph N13.0 kmh N 16.1 mph25.9 kmh 30.16 in1021.3 mb - 0.00 in0.0 mm 0.00 in0.0 mm
07:45 AM 60.8°F16.0°C 43.1°F6.2°C 52% 8.1 mph N13.0 kmh N 13.8 mph22.2 kmh 30.16 in1021.3 mb - 0.00 in0.0 mm 0.00 in0.0 mm
07:40 AM 60.6°F15.9°C 42.9°F6.1°C 52% 6.9 mph N11.1 kmh N 11.5 mph18.5 kmh 30.16 in1021.3 mb - 0.00 in0.0 mm 0.00 in0.0 mm
07:35 AM 60.6°F15.9°C 42.8°F6.0°C 52% 8.1 mph N13.0 kmh N 15.0 mph24.1 kmh 30.16 in1021.3 mb - 0.00 in0.0 mm 0.00 in0.0 mm
07:30 AM 60.4°F15.8°C 42.7°F5.9°C 52% 9.2 mph NNE14.8 kmh NNE 13.8 mph22.2 kmh 30.16 in1021.3 mb - 0.00 in0.0 mm 0.00 in0.0 mm
07:25 AM 60.4°F15.8°C 42.7°F5.9°C 52% 9.2 mph N14.8 kmh N 15.0 mph24.1 kmh 30.16 in1021.3 mb - 0.00 in0.0 mm 0.00 in0.0 mm
07:20 AM 60.4°F15.8°C 42.7°F5.9°C 52% 10.4 mph N16.7 kmh N 12.7 mph20.4 kmh 30.16 in1021.3 mb - 0.00 in0.0 mm 0.00 in0.0 mm
07:15 AM 60.1°F15.6°C 42.4°F5.8°C 52% 8.1 mph N13.0 kmh N 16.1 mph25.9 kmh 30.16 in1021.3 mb - 0.00 in0.0 mm 0.00 in0.0 mm
07:10 AM 59.8°F15.4°C 42.6°F5.9°C 53% 8.1 mph N13.0 kmh N 11.5 mph18.5 kmh 30.15 in1021.0 mb - 0.00 in0.0 mm 0.00 in0.0 mm
07:00 AM 59.9°F15.5°C 42.7°F5.9°C 53% 8.1 mph N13.0 kmh N 11.5 mph18.5 kmh 30.15 in1021.0 mb - 0.00 in0.0 mm 0.00 in0.0 mm
06:55 AM 59.8°F15.4°C 42.6°F5.9°C 53% 8.1 mph N13.0 kmh N 12.7 mph20.4 kmh 30.15 in1021.0 mb - 0.00 in0.0 mm 0.00 in0.0 mm
06:50 AM 59.9°F15.5°C 42.7°F5.9°C 53% 8.1 mph N13.0 kmh N 12.7 mph20.4 kmh 30.15 in1021.0 mb - 0.00 in0.0 mm 0.00 in0.0 mm
06:45 AM 59.9°F15.5°C 42.2°F5.7°C 52% 9.2 mph NNE14.8 kmh NNE 11.5 mph18.5 kmh 30.15 in1021.0 mb - 0.00 in0.0 mm 0.00 in0.0 mm
06:40 AM 59.7°F15.4°C 42.5°F5.8°C 53% 9.2 mph N14.8 kmh N 13.8 mph22.2 kmh 30.15 in1021.0 mb - 0.00 in0.0 mm 0.00 in0.0 mm
06:35 AM 59.5°F15.3°C 42.4°F5.8°C 53% 8.1 mph NNE13.0 kmh NNE 13.8 mph22.2 kmh 30.15 in1021.0 mb - 0.00 in0.0 mm 0.00 in0.0 mm
06:30 AM 59.4°F15.2°C 42.7°F5.9°C 54% 8.1 mph NNE13.0 kmh NNE 11.5 mph18.5 kmh 30.15 in1021.0 mb - 0.00 in0.0 mm 0.00 in0.0 mm
06:25 AM 59.5°F15.3°C 42.3°F5.7°C 53% 8.1 mph N13.0 kmh N 10.4 mph16.7 kmh 30.15 in1021.0 mb - 0.00 in0.0 mm 0.00 in0.0 mm
06:20 AM 59.4°F15.2°C 42.3°F5.7°C 53% 9.2 mph N14.8 kmh N 11.5 mph18.5 kmh 30.15 in1021.0 mb - 0.00 in0.0 mm 0.00 in0.0 mm
06:15 AM 59.2°F15.1°C 42.6°F5.9°C 54% 9.2 mph N14.8 kmh N 11.5 mph18.5 kmh 30.15 in1021.0 mb - 0.00 in0.0 mm 0.00 in0.0 mm
06:10 AM 59.3°F15.2°C 42.6°F5.9°C 54% 6.9 mph N11.1 kmh N 9.2 mph14.8 kmh 30.15 in1021.0 mb - 0.00 in0.0 mm 0.00 in0.0 mm
06:00 AM 59.1°F15.1°C 42.5°F5.8°C 54% 8.1 mph N13.0 kmh N 9.2 mph14.8 kmh 30.14 in1020.7 mb - 0.00 in0.0 mm 0.00 in0.0 mm
05:55 AM 59.0°F15.0°C 42.4°F5.8°C 54% 6.9 mph NE11.1 kmh NE 12.7 mph20.4 kmh 30.14 in1020.7 mb - 0.00 in0.0 mm 0.00 in0.0 mm
05:50 AM 59.0°F15.0°C 42.3°F5.7°C 54% 8.1 mph N13.0 kmh N 11.5 mph18.5 kmh 30.14 in1020.7 mb - 0.00 in0.0 mm 0.00 in0.0 mm
05:45 AM 59.0°F15.0°C 42.4°F5.8°C 54% 6.9 mph NNW11.1 kmh NNW 9.2 mph14.8 kmh 30.14 in1020.7 mb - 0.00 in0.0 mm 0.00 in0.0 mm
05:40 AM 59.2°F15.1°C 42.5°F5.8°C 54% 8.1 mph N13.0 kmh N 10.4 mph16.7 kmh 30.14 in1020.7 mb - 0.00 in0.0 mm 0.00 in0.0 mm
05:30 AM 59.3°F15.2°C 42.1°F5.6°C 53% 8.1 mph N13.0 kmh N 11.5 mph18.5 kmh 30.14 in1020.7 mb - 0.00 in0.0 mm 0.00 in0.0 mm
05:25 AM 59.3°F15.2°C 42.2°F5.7°C 53% 9.2 mph N14.8 kmh N 13.8 mph22.2 kmh 30.14 in1020.7 mb - 0.00 in0.0 mm 0.00 in0.0 mm
05:20 AM 59.5°F15.3°C 42.4°F5.8°C 53% 6.9 mph N11.1 kmh N 9.2 mph14.8 kmh 30.14 in1020.7 mb - 0.00 in0.0 mm 0.00 in0.0 mm
05:15 AM 59.8°F15.4°C 42.1°F5.6°C 52% 10.4 mph NNE16.7 kmh NNE 12.7 mph20.4 kmh 30.14 in1020.7 mb - 0.00 in0.0 mm 0.00 in0.0 mm
05:10 AM 59.8°F15.4°C 42.1°F5.6°C 52% 10.4 mph N16.7 kmh N 13.8 mph22.2 kmh 30.13 in1020.3 mb - 0.00 in0.0 mm 0.00 in0.0 mm
05:00 AM 60.1°F15.6°C 41.9°F5.5°C 51% 9.2 mph N14.8 kmh N 15.0 mph24.1 kmh 30.13 in1020.3 mb - 0.00 in0.0 mm 0.00 in0.0 mm
04:55 AM 60.0°F15.6°C 42.3°F5.7°C 52% 10.4 mph NNE16.7 kmh NNE 16.1 mph25.9 kmh 30.13 in1020.3 mb - 0.00 in0.0 mm 0.00 in0.0 mm
04:50 AM 59.9°F15.5°C 42.2°F5.7°C 52% 10.4 mph N16.7 kmh N 12.7 mph20.4 kmh 30.13 in1020.3 mb - 0.00 in0.0 mm 0.00 in0.0 mm
04:45 AM 59.6°F15.3°C 42.4°F5.8°C 53% 8.1 mph N13.0 kmh N 13.8 mph22.2 kmh 30.13 in1020.3 mb - 0.00 in0.0 mm 0.00 in0.0 mm
04:40 AM 59.5°F15.3°C 42.4°F5.8°C 53% 8.1 mph N13.0 kmh N 12.7 mph20.4 kmh 30.13 in1020.3 mb - 0.00 in0.0 mm 0.00 in0.0 mm
04:35 AM 59.5°F15.3°C 42.3°F5.7°C 53% 8.1 mph N13.0 kmh N 10.4 mph16.7 kmh 30.13 in1020.3 mb - 0.00 in0.0 mm 0.00 in0.0 mm
04:30 AM 59.6°F15.3°C 42.4°F5.8°C 53% 8.1 mph N13.0 kmh N 12.7 mph20.4 kmh 30.13 in1020.3 mb - 0.00 in0.0 mm 0.00 in0.0 mm
04:25 AM 59.7°F15.4°C 42.1°F5.6°C 52% 9.2 mph N14.8 kmh N 11.5 mph18.5 kmh 30.13 in1020.3 mb - 0.00 in0.0 mm 0.00 in0.0 mm
04:20 AM 59.7°F15.4°C 42.5°F5.8°C 53% 8.1 mph N13.0 kmh N 9.2 mph14.8 kmh 30.13 in1020.3 mb - 0.00 in0.0 mm 0.00 in0.0 mm
04:15 AM 59.6°F15.3°C 42.0°F5.6°C 52% 6.9 mph NE11.1 kmh NE 12.7 mph20.4 kmh 30.13 in1020.3 mb - 0.00 in0.0 mm 0.00 in0.0 mm
04:10 AM 59.5°F15.3°C 42.4°F5.8°C 53% 8.1 mph N13.0 kmh N 11.5 mph18.5 kmh 30.13 in1020.3 mb - 0.00 in0.0 mm 0.00 in0.0 mm
04:00 AM 59.4°F15.2°C 42.3°F5.7°C 53% 9.2 mph N14.8 kmh N 13.8 mph22.2 kmh 30.12 in1020.0 mb - 0.00 in0.0 mm 0.00 in0.0 mm
03:55 AM 59.1°F15.1°C 42.4°F5.8°C 54% 8.1 mph NNE13.0 kmh NNE 12.7 mph20.4 kmh 30.12 in1020.0 mb - 0.00 in0.0 mm 0.00 in0.0 mm
03:50 AM 58.8°F14.9°C 42.7°F5.9°C 55% 6.9 mph NE11.1 kmh NE 11.5 mph18.5 kmh 30.12 in1020.0 mb - 0.00 in0.0 mm 0.00 in0.0 mm
03:45 AM 58.7°F14.8°C 42.6°F5.9°C 55% 6.9 mph NNE11.1 kmh NNE 11.5 mph18.5 kmh 30.12 in1020.0 mb - 0.00 in0.0 mm 0.00 in0.0 mm
03:40 AM 58.9°F14.9°C 42.8°F6.0°C 55% 8.1 mph NNE13.0 kmh NNE 9.2 mph14.8 kmh 30.12 in1020.0 mb - 0.00 in0.0 mm 0.00 in0.0 mm
03:35 AM 59.2°F15.1°C 42.5°F5.8°C 54% 6.9 mph NNE11.1 kmh NNE 11.5 mph18.5 kmh 30.12 in1020.0 mb - 0.00 in0.0 mm 0.00 in0.0 mm
03:30 AM 59.6°F15.3°C 42.9°F6.1°C 54% 4.6 mph NNE7.4 kmh NNE 8.1 mph13.0 kmh 30.12 in1020.0 mb - 0.00 in0.0 mm 0.00 in0.0 mm
03:25 AM 59.7°F15.4°C 42.5°F5.8°C 53% 4.6 mph NNE7.4 kmh NNE 9.2 mph14.8 kmh 30.12 in1020.0 mb - 0.00 in0.0 mm 0.00 in0.0 mm
03:20 AM 60.2°F15.7°C 43.0°F6.1°C 53% 5.8 mph NNE9.3 kmh NNE 6.9 mph11.1 kmh 30.13 in1020.3 mb - 0.00 in0.0 mm 0.00 in0.0 mm
03:15 AM 60.1°F15.6°C 42.4°F5.8°C 52% 5.8 mph N9.3 kmh N 9.2 mph14.8 kmh 30.13 in1020.3 mb - 0.00 in0.0 mm 0.00 in0.0 mm
03:10 AM 60.0°F15.6°C 42.3°F5.7°C 52% 5.8 mph N9.3 kmh N 10.4 mph16.7 kmh 30.13 in1020.3 mb - 0.00 in0.0 mm 0.00 in0.0 mm
03:00 AM 60.1°F15.6°C 42.4°F5.8°C 52% 5.8 mph N9.3 kmh N 5.8 mph9.3 kmh 30.13 in1020.3 mb - 0.00 in0.0 mm 0.00 in0.0 mm
02:55 AM 59.9°F15.5°C 42.7°F5.9°C 53% 6.9 mph NE11.1 kmh NE 10.4 mph16.7 kmh 30.13 in1020.3 mb - 0.00 in0.0 mm 0.00 in0.0 mm
02:50 AM 60.0°F15.6°C 42.4°F5.8°C 52% 8.1 mph N13.0 kmh N 10.4 mph16.7 kmh 30.13 in1020.3 mb - 0.00 in0.0 mm 0.00 in0.0 mm
02:45 AM 59.8°F15.4°C 42.6°F5.9°C 53% 8.1 mph N13.0 kmh N 16.1 mph25.9 kmh 30.13 in1020.3 mb - 0.00 in0.0 mm 0.00 in0.0 mm
02:40 AM 59.9°F15.5°C 42.7°F5.9°C 53% 6.9 mph N11.1 kmh N 11.5 mph18.5 kmh 30.14 in1020.7 mb - 0.00 in0.0 mm 0.00 in0.0 mm
02:35 AM 59.8°F15.4°C 42.6°F5.9°C 53% 5.8 mph N9.3 kmh N 13.8 mph22.2 kmh 30.13 in1020.3 mb - 0.00 in0.0 mm 0.00 in0.0 mm
02:30 AM 59.7°F15.4°C 43.0°F6.1°C 54% 5.8 mph NNE9.3 kmh NNE 11.5 mph18.5 kmh 30.13 in1020.3 mb - 0.00 in0.0 mm 0.00 in0.0 mm
02:25 AM 59.9°F15.5°C 42.7°F5.9°C 53% 6.9 mph N11.1 kmh N 10.4 mph16.7 kmh 30.14 in1020.7 mb - 0.00 in0.0 mm 0.00 in0.0 mm
02:20 AM 59.9°F15.5°C 42.7°F5.9°C 53% 5.8 mph N9.3 kmh N 10.4 mph16.7 kmh 30.14 in1020.7 mb - 0.00 in0.0 mm 0.00 in0.0 mm
02:15 AM 60.1°F15.6°C 42.9°F6.1°C 53% 6.9 mph N11.1 kmh N 8.1 mph13.0 kmh 30.14 in1020.7 mb - 0.00 in0.0 mm 0.00 in0.0 mm
02:10 AM 60.2°F15.7°C 43.0°F6.1°C 53% 6.9 mph N11.1 kmh N 10.4 mph16.7 kmh 30.14 in1020.7 mb - 0.00 in0.0 mm 0.00 in0.0 mm
02:00 AM 60.0°F15.6°C 43.3°F6.3°C 54% 4.6 mph NNE7.4 kmh NNE 6.9 mph11.1 kmh 30.14 in1020.7 mb - 0.00 in0.0 mm 0.00 in0.0 mm
01:55 AM 59.9°F15.5°C 43.2°F6.2°C 54% 4.6 mph NNE7.4 kmh NNE 4.6 mph7.4 kmh 30.14 in1020.7 mb - 0.00 in0.0 mm 0.00 in0.0 mm
01:50 AM 59.9°F15.5°C 43.2°F6.2°C 54% 3.5 mph NNE5.6 kmh NNE 5.8 mph9.3 kmh 30.15 in1021.0 mb - 0.00 in0.0 mm 0.00 in0.0 mm
01:45 AM 59.9°F15.5°C 43.2°F6.2°C 54% 4.6 mph N7.4 kmh N 6.9 mph11.1 kmh 30.15 in1021.0 mb - 0.00 in0.0 mm 0.00 in0.0 mm
01:40 AM 59.9°F15.5°C 43.2°F6.2°C 54% 4.6 mph NNE7.4 kmh NNE 4.6 mph7.4 kmh 30.15 in1021.0 mb - 0.00 in0.0 mm 0.00 in0.0 mm
01:35 AM 59.7°F15.4°C 43.5°F6.4°C 55% 3.5 mph N5.6 kmh N 5.8 mph9.3 kmh 30.15 in1021.0 mb - 0.00 in0.0 mm 0.00 in0.0 mm
01:30 AM 59.5°F15.3°C 43.3°F6.3°C 55% 3.5 mph N5.6 kmh N 5.8 mph9.3 kmh 30.15 in1021.0 mb - 0.00 in0.0 mm 0.00 in0.0 mm
01:25 AM 59.0°F15.0°C 43.4°F6.3°C 56% 2.3 mph N3.7 kmh N 4.6 mph7.4 kmh 30.15 in1021.0 mb - 0.00 in0.0 mm 0.00 in0.0 mm
01:20 AM 58.8°F14.9°C 43.6°F6.4°C 57% 2.3 mph N3.7 kmh N 4.6 mph7.4 kmh 30.15 in1021.0 mb - 0.00 in0.0 mm 0.00 in0.0 mm
01:15 AM 58.6°F14.8°C 43.9°F6.6°C 58% 2.3 mph NNE3.7 kmh NNE 3.5 mph5.6 kmh 30.15 in1021.0 mb - 0.00 in0.0 mm 0.00 in0.0 mm
01:10 AM 58.7°F14.8°C 43.9°F6.6°C 58% Calm Calm 3.5 mph5.6 kmh 30.15 in1021.0 mb - 0.00 in0.0 mm 0.00 in0.0 mm
01:00 AM 58.3°F14.6°C 43.6°F6.4°C 58% 1.2 mph NNE1.9 kmh NNE 2.3 mph3.7 kmh 30.15 in1021.0 mb - 0.00 in0.0 mm 0.00 in0.0 mm
12:55 AM 58.4°F14.7°C 43.7°F6.5°C 58% Calm Calm -- 30.15 in1021.0 mb - 0.00 in0.0 mm 0.00 in0.0 mm
12:50 AM 58.3°F14.6°C 43.2°F6.2°C 57% Calm Calm 2.3 mph3.7 kmh 30.15 in1021.0 mb - 0.00 in0.0 mm 0.00 in0.0 mm
12:45 AM 58.5°F14.7°C 43.8°F6.6°C 58% Calm Calm -- 30.15 in1021.0 mb - 0.00 in0.0 mm 0.00 in0.0 mm
12:40 AM 58.3°F14.6°C 43.6°F6.4°C 58% Calm Calm 2.3 mph3.7 kmh 30.15 in1021.0 mb - 0.00 in0.0 mm 0.00 in0.0 mm
12:35 AM 58.1°F14.5°C 43.4°F6.3°C 58% Calm Calm 1.2 mph1.9 kmh 30.15 in1021.0 mb - 0.00 in0.0 mm 0.00 in0.0 mm
12:30 AM 57.9°F14.4°C 43.2°F6.2°C 58% Calm Calm -- 30.15 in1021.0 mb - 0.00 in0.0 mm 0.00 in0.0 mm
12:25 AM 57.9°F14.4°C 43.7°F6.5°C 59% Calm Calm -- 30.15 in1021.0 mb - 0.00 in0.0 mm 0.00 in0.0 mm
12:20 AM 58.2°F14.6°C 44.0°F6.7°C 59% Calm Calm -- 30.15 in1021.0 mb - 0.00 in0.0 mm 0.00 in0.0 mm
12:15 AM 58.8°F14.9°C 44.0°F6.7°C 58% Calm Calm -- 30.15 in1021.0 mb - 0.00 in0.0 mm 0.00 in0.0 mm
12:10 AM 59.2°F15.1°C 43.9°F6.6°C 57% Calm Calm 1.2 mph1.9 kmh 30.15 in1021.0 mb - 0.00 in0.0 mm 0.00 in0.0 mm
12:00 AM 59.7°F15.4°C 44.0°F6.7°C 56% 1.2 mph NNE1.9 kmh NNE 1.2 mph1.9 kmh 30.15 in1021.0 mb - 0.00 in0.0 mm 0.00 in0.0 mm